Time;durP1;ratioP1;P1;durP2;ratioP2;P2;SDS_P1;SDS_P2;PMS_P1;PMS_P2;Temp;Humidity;BMP_temperature;BMP_pressure;BME280_temperature;BME280_humidity;BME280_pressure;Samples;Min_cycle;Max_cycle;Signal;HPM_P1;HPM_P2
2023/06/11 00:00:20;;;;;;;2.25;2.10;;;;;;;24.04;47.32;100702.81;4488894;28;20038;-60
2023/06/11 00:02:33;;;;;;;2.40;2.20;;;;;;;24.08;46.54;100714.41;4489908;28;20033;-61
2023/06/11 00:04:45;;;;;;;2.50;2.30;;;;;;;24.09;46.71;100704.50;4488568;28;20034;-60
2023/06/11 00:06:56;;;;;;;2.30;2.10;;;;;;;24.04;46.25;100705.69;4492636;28;20108;-60
2023/06/11 00:09:06;;;;;;;2.30;2.10;;;;;;;24.08;46.49;100714.41;4492762;28;20785;-60
2023/06/11 00:11:18;;;;;;;2.50;2.30;;;;;;;24.10;46.57;100711.97;4492127;28;20043;-61
2023/06/11 00:13:28;;;;;;;2.30;2.10;;;;;;;24.08;46.86;100712.34;4491893;28;20655;-60
2023/06/11 00:15:39;;;;;;;2.60;2.40;;;;;;;24.09;46.80;100716.88;4492047;28;20101;-60
2023/06/11 00:17:50;;;;;;;2.40;2.20;;;;;;;24.09;46.58;100714.00;4480596;28;20043;-60
2023/06/11 00:20:08;;;;;;;2.30;2.10;;;;;;;24.08;46.73;100703.72;4482886;28;20083;-60
2023/06/11 00:22:19;;;;;;;2.28;2.08;;;;;;;23.94;46.38;100680.38;4491462;28;20038;-60
2023/06/11 00:24:29;;;;;;;2.60;2.40;;;;;;;24.06;46.11;100706.13;4476683;28;20038;-60
2023/06/11 00:26:41;;;;;;;2.20;2.03;;;;;;;24.09;46.38;100714.00;4492706;28;20039;-60
2023/06/11 00:28:51;;;;;;;2.65;2.45;;;;;;;24.07;46.60;100719.31;4484717;28;20042;-61
2023/06/11 00:31:03;;;;;;;2.30;2.10;;;;;;;24.07;47.15;100707.78;4478025;28;20042;-60
2023/06/11 00:33:14;;;;;;;2.20;2.00;;;;;;;24.01;47.02;100697.81;4491269;28;20153;-60
2023/06/11 00:35:24;;;;;;;2.10;2.00;;;;;;;24.07;47.06;100706.97;4476001;28;20027;-61
2023/06/11 00:37:35;;;;;;;2.50;2.30;;;;;;;24.09;46.70;100708.25;4491289;28;20097;-60
2023/06/11 00:39:46;;;;;;;2.30;2.10;;;;;;;24.08;45.99;100715.25;4490424;28;20585;-60
2023/06/11 00:41:57;;;;;;;2.47;2.28;;;;;;;24.06;46.41;100711.91;4476674;28;20122;-60
2023/06/11 00:44:09;;;;;;;2.42;2.22;;;;;;;24.04;46.60;100705.69;4475116;28;20030;-60
2023/06/11 00:46:21;;;;;;;2.33;2.13;;;;;;;24.07;46.54;100713.56;4482535;28;20034;-60
2023/06/11 00:48:32;;;;;;;2.38;2.17;;;;;;;24.01;46.63;100696.97;4476323;28;20022;-60
2023/06/11 00:50:45;;;;;;;2.50;2.30;;;;;;;24.08;46.60;100721.00;4475182;28;20034;-61
2023/06/11 00:52:56;;;;;;;2.38;2.17;;;;;;;24.07;46.55;100715.63;4475715;28;20085;-60
2023/06/11 00:55:07;;;;;;;2.33;2.13;;;;;;;24.07;46.69;100713.56;4477160;28;20035;-60
2023/06/11 00:57:22;;;;;;;2.33;2.13;;;;;;;24.08;46.92;100726.78;4490703;28;20034;-61
2023/06/11 00:59:38;;;;;;;2.20;2.00;;;;;;;24.08;46.64;100726.78;4490316;28;20050;-61
2023/06/11 01:02:23;;;;;;;2.28;2.08;;;;;;;24.07;46.04;100724.28;4472276;28;20031;-60
2023/06/11 01:04:35;;;;;;;2.33;2.13;;;;;;;24.08;45.67;100725.94;4490349;28;20052;-60
2023/06/11 01:06:49;;;;;;;2.42;2.22;;;;;;;24.06;45.39;100717.69;4492344;28;20045;-61
2023/06/11 01:09:01;;;;;;;2.72;2.13;;;;;;;24.06;45.61;100720.56;4475842;28;20064;-61
2023/06/11 01:11:21;;;;;;;2.20;2.00;;;;;;;24.04;45.59;100713.53;4477199;28;20152;-61
2023/06/11 01:13:36;;;;;;;2.38;2.15;;;;;;;24.01;45.88;100715.13;4476396;28;20314;-62
2023/06/11 01:15:47;;;;;;;2.60;2.40;;;;;;;23.91;45.98;100686.94;4491241;28;20038;-61
2023/06/11 01:18:18;;;;;;;2.60;2.40;;;;;;;24.05;45.89;100712.28;4474130;28;20042;-62
2023/06/11 01:21:07;;;;;;;2.47;2.20;;;;;;;24.08;45.53;100721.00;4483104;28;20542;-62
2023/06/11 01:23:33;;;;;;;2.40;2.20;;;;;;;24.02;45.61;100713.06;4443981;28;20058;-64
2023/06/11 01:25:50;;;;;;;2.35;2.15;;;;;;;24.08;46.03;100715.25;4483237;28;20077;-61
2023/06/11 01:28:09;;;;;;;2.00;1.90;;;;;;;24.08;46.22;100721.00;4489159;28;20034;-61
2023/06/11 01:30:20;;;;;;;2.22;2.08;;;;;;;24.04;46.08;100717.22;4474566;28;21236;-63
2023/06/11 01:32:32;;;;;;;2.28;2.08;;;;;;;24.07;46.34;100707.78;4480599;28;20745;-61
2023/06/11 01:34:45;;;;;;;2.30;2.10;;;;;;;24.05;45.89;100715.19;4462775;28;20109;-63
2023/06/11 01:37:01;;;;;;;2.50;2.30;;;;;;;24.07;45.57;100716.44;4474483;28;20035;-62
2023/06/11 01:39:12;;;;;;;2.17;1.98;;;;;;;24.00;45.20;100703.97;4481912;28;20491;-61
2023/06/11 01:41:28;;;;;;;2.30;2.10;;;;;;;24.05;45.53;100713.13;4491370;28;20034;-61
2023/06/11 01:43:39;;;;;;;2.40;2.20;;;;;;;24.07;45.73;100712.75;4462846;28;20281;-60
2023/06/11 01:45:50;;;;;;;2.15;1.95;;;;;;;24.04;45.77;100702.81;4475893;28;20591;-62
2023/06/11 01:48:00;;;;;;;2.25;2.10;;;;;;;24.06;45.87;100720.56;4476231;28;20116;-63
2023/06/11 01:50:12;;;;;;;2.25;2.05;;;;;;;24.01;45.72;100703.59;4483135;28;20670;-61
2023/06/11 01:52:24;;;;;;;2.63;2.20;;;;;;;24.06;45.43;100711.91;4479795;28;20038;-62
2023/06/11 01:54:35;;;;;;;2.30;2.10;;;;;;;24.04;45.35;100708.56;4489888;28;20037;-65
2023/06/11 01:56:45;;;;;;;2.63;2.40;;;;;;;24.03;45.29;100712.69;4473698;28;20501;-62
2023/06/11 01:58:57;;;;;;;2.42;2.22;;;;;;;24.04;45.45;100705.69;4487915;28;20080;-61
2023/06/11 02:01:08;;;;;;;2.20;2.00;;;;;;;24.05;45.22;100727.56;4473085;28;20034;-61
2023/06/11 02:03:20;;;;;;;2.47;2.28;;;;;;;24.06;45.16;100714.78;4474049;28;20665;-63
2023/06/11 02:05:31;;;;;;;2.50;2.30;;;;;;;24.01;45.24;100715.13;4490998;28;20113;-60
2023/06/11 02:07:41;;;;;;;2.50;2.30;;;;;;;23.98;45.34;100701.47;4480595;28;20034;-61
2023/06/11 02:09:52;;;;;;;2.50;2.30;;;;;;;24.06;44.98;100714.78;4490958;28;20058;-60
2023/06/11 02:12:02;;;;;;;2.92;2.40;;;;;;;24.05;45.01;100715.19;4490210;28;20046;-61
2023/06/11 02:14:13;;;;;;;2.40;2.20;;;;;;;24.05;45.29;100710.25;4482781;28;20030;-64
2023/06/11 02:16:23;;;;;;;2.40;2.20;;;;;;;24.01;45.05;100702.75;4488684;28;20030;-64
2023/06/11 02:18:34;;;;;;;2.38;2.10;;;;;;;24.05;45.13;100716.03;4475547;28;20149;-61
2023/06/11 02:20:44;;;;;;;2.50;2.30;;;;;;;24.03;45.15;100700.31;4458726;28;20527;-61
2023/06/11 02:22:55;;;;;;;2.35;2.15;;;;;;;24.05;45.07;100706.53;4473933;28;20121;-61
2023/06/11 02:25:05;;;;;;;2.38;2.17;;;;;;;24.05;44.92;100704.50;4489515;28;20597;-60
2023/06/11 02:27:17;;;;;;;2.25;2.05;;;;;;;24.05;44.45;100710.25;4472503;28;20057;-61
2023/06/11 02:29:27;;;;;;;2.50;2.30;;;;;;;23.99;44.85;100700.25;4471727;28;20030;-63
2023/06/11 02:31:37;;;;;;;2.17;2.00;;;;;;;24.05;44.87;100713.13;4490767;28;20042;-66
2023/06/11 02:33:48;;;;;;;2.60;2.40;;;;;;;23.98;44.67;100698.59;4472005;28;20433;-61
2023/06/11 02:35:58;;;;;;;2.50;2.30;;;;;;;24.05;44.92;100716.03;4489707;28;20066;-61
2023/06/11 02:38:09;;;;;;;2.35;2.15;;;;;;;24.00;44.65;100696.16;4488924;28;20109;-61
2023/06/11 02:40:20;;;;;;;2.50;2.30;;;;;;;24.03;44.54;100709.81;4490636;28;20046;-63
2023/06/11 02:42:30;;;;;;;2.40;2.20;;;;;;;24.04;44.75;100707.75;4472527;28;20074;-61
2023/06/11 02:44:40;;;;;;;2.45;2.25;;;;;;;24.03;44.69;100712.69;4489299;28;20029;-63
2023/06/11 02:46:51;;;;;;;2.33;2.13;;;;;;;24.03;44.92;100706.91;4490629;28;20034;-60
2023/06/11 02:49:01;;;;;;;2.35;2.15;;;;;;;24.05;45.37;100709.41;4489217;28;20080;-61
2023/06/11 02:51:12;;;;;;;2.40;2.20;;;;;;;23.91;45.24;100686.94;4489279;28;20238;-62
2023/06/11 02:53:22;;;;;;;2.20;2.00;;;;;;;24.04;45.30;100713.53;4475366;28;20077;-62
2023/06/11 02:55:33;;;;;;;2.65;2.20;;;;;;;24.06;45.55;100711.06;4490983;28;20121;-61
2023/06/11 02:57:43;;;;;;;2.53;2.33;;;;;;;24.03;45.15;100711.84;4491247;28;20038;-61
2023/06/11 02:59:54;;;;;;;2.40;2.20;;;;;;;24.05;45.40;100718.06;4472465;28;20495;-62
2023/06/11 03:02:04;;;;;;;2.50;2.30;;;;;;;24.01;45.27;100708.50;4477253;28;20035;-61
2023/06/11 03:04:15;;;;;;;2.30;2.10;;;;;;;24.03;45.34;100730.00;4481551;28;20038;-61
2023/06/11 03:06:26;;;;;;;2.40;2.20;;;;;;;23.92;45.07;100705.88;4482230;28;20038;-61
2023/06/11 03:08:36;;;;;;;2.40;2.20;;;;;;;24.04;45.30;100730.81;4483749;28;20073;-60
2023/06/11 03:10:47;;;;;;;2.30;2.10;;;;;;;24.02;44.95;100721.72;4490323;28;20041;-62
2023/06/11 03:12:57;;;;;;;2.30;2.10;;;;;;;24.04;45.16;100737.41;4479656;28;20458;-62
2023/06/11 03:15:08;;;;;;;2.10;2.00;;;;;;;24.01;45.18;100732.41;4470755;28;20112;-65
2023/06/11 03:17:19;;;;;;;2.30;2.10;;;;;;;24.03;45.04;100735.75;4474437;28;20491;-63
2023/06/11 03:19:29;;;;;;;2.47;2.28;;;;;;;24.02;45.38;100730.38;4480454;28;20398;-60
2023/06/11 03:21:41;;;;;;;2.10;2.00;;;;;;;24.00;45.61;100725.00;4473304;28;20684;-60
2023/06/11 03:23:52;;;;;;;2.20;2.00;;;;;;;23.93;45.52;100719.06;4474289;28;20038;-60
2023/06/11 03:26:05;;;;;;;2.75;2.30;;;;;;;24.00;45.18;100730.75;4489062;28;20125;-60
2023/06/11 03:28:21;;;;;;;2.08;1.98;;;;;;;23.78;45.21;100693.28;4473755;28;20569;-61
2023/06/11 03:30:31;;;;;;;2.38;2.17;;;;;;;24.01;45.16;100737.34;4489070;28;20030;-62
2023/06/11 03:32:43;;;;;;;2.47;2.28;;;;;;;24.02;45.19;100739.88;4474634;28;20050;-59
2023/06/11 03:34:55;;;;;;;2.30;2.10;;;;;;;23.96;44.87;100726.94;4472582;28;20098;-60
2023/06/11 03:37:07;;;;;;;2.38;2.17;;;;;;;23.99;45.18;100734.84;4472029;28;20583;-60
2023/06/11 03:39:18;;;;;;;2.40;2.20;;;;;;;23.97;45.23;100728.66;4489467;28;20038;-59
2023/06/11 03:41:31;;;;;;;2.40;2.20;;;;;;;23.83;45.02;100708.22;4478176;28;20030;-61
2023/06/11 03:43:42;;;;;;;2.22;2.10;;;;;;;23.96;45.35;100724.06;4468255;28;20035;-60
2023/06/11 03:45:52;;;;;;;2.30;2.10;;;;;;;24.02;45.54;100734.09;4492486;28;20026;-60
2023/06/11 03:48:04;;;;;;;2.40;2.20;;;;;;;24.02;45.43;100739.88;4491267;28;20120;-60
2023/06/11 03:50:16;;;;;;;2.42;2.22;;;;;;;24.02;45.11;100744.78;4484968;28;20039;-60
2023/06/11 03:52:27;;;;;;;2.40;2.20;;;;;;;24.00;44.78;100736.53;4491028;28;20038;-60
2023/06/11 03:54:37;;;;;;;2.30;2.10;;;;;;;24.00;45.16;100729.91;4474102;28;20050;-60
2023/06/11 03:56:48;;;;;;;2.28;2.13;;;;;;;24.01;45.00;100737.34;4489865;28;20153;-61
2023/06/11 03:58:58;;;;;;;2.70;2.50;;;;;;;23.99;44.77;100734.84;4477271;28;20035;-63
2023/06/11 04:01:09;;;;;;;2.45;2.25;;;;;;;23.96;44.97;100732.72;4477017;28;20053;-60
2023/06/11 04:03:19;;;;;;;2.53;2.10;;;;;;;23.99;44.94;100731.97;4474196;28;20590;-63
2023/06/11 04:05:35;;;;;;;2.85;2.25;;;;;;;23.98;45.03;100733.19;4483742;28;20207;-60
2023/06/11 04:07:45;;;;;;;2.10;1.90;;;;;;;24.01;45.32;100743.94;4483693;28;20030;-63
2023/06/11 04:09:55;;;;;;;2.83;2.30;;;;;;;23.96;45.15;100729.81;4493274;28;20478;-59
2023/06/11 04:12:07;;;;;;;2.50;2.30;;;;;;;23.95;44.94;100733.94;4474405;28;20026;-60
2023/06/11 04:14:18;;;;;;;2.83;2.20;;;;;;;24.02;45.23;100748.53;4482605;28;20393;-60
2023/06/11 04:16:28;;;;;;;2.40;2.20;;;;;;;23.96;45.50;100737.66;4476591;28;20966;-60
2023/06/11 04:18:39;;;;;;;2.60;2.40;;;;;;;23.95;45.86;100741.75;4491279;28;20100;-59
2023/06/11 04:20:49;;;;;;;2.40;2.20;;;;;;;24.00;45.70;100747.22;4476674;28;20409;-60
2023/06/11 04:23:00;;;;;;;3.08;2.72;;;;;;;23.88;45.35;100730.94;4458546;28;20032;-60
2023/06/11 04:25:12;;;;;;;2.92;2.33;;;;;;;24.01;45.78;100754.66;4491562;28;20034;-60
2023/06/11 04:27:22;;;;;;;2.50;2.30;;;;;;;23.98;45.48;100738.13;4474028;28;20051;-60
2023/06/11 04:29:33;;;;;;;2.42;2.22;;;;;;;23.99;46.00;100746.38;4474215;28;20058;-60
2023/06/11 04:31:47;;;;;;;2.50;2.30;;;;;;;23.98;46.03;100744.72;4489200;28;20545;-59
2023/06/11 04:34:06;;;;;;;2.53;2.33;;;;;;;23.98;46.01;100744.72;4473975;28;20088;-60
2023/06/11 04:36:24;;;;;;;2.55;2.35;;;;;;;23.99;46.20;100752.16;4483409;28;20050;-59
2023/06/11 04:38:36;;;;;;;2.55;2.35;;;;;;;23.99;46.00;100752.16;4476861;28;20042;-60
2023/06/11 04:40:47;;;;;;;2.55;2.10;;;;;;;23.99;46.23;100752.16;4483863;28;20054;-60
2023/06/11 04:42:58;;;;;;;2.40;2.20;;;;;;;23.97;46.33;100745.97;4476919;28;20035;-58
2023/06/11 04:45:10;;;;;;;2.60;2.40;;;;;;;23.94;46.62;100743.81;4489734;28;20048;-60
2023/06/11 04:47:24;;;;;;;2.22;2.10;;;;;;;23.94;46.58;100749.59;4474569;28;20038;-60
2023/06/11 04:49:35;;;;;;;2.50;2.30;;;;;;;23.96;46.92;100740.56;4474958;28;20121;-60
2023/06/11 04:51:48;;;;;;;2.58;2.38;;;;;;;23.99;46.96;100752.16;4476335;28;20454;-60
2023/06/11 04:54:07;;;;;;;2.47;2.28;;;;;;;23.98;47.10;100756.25;4467045;28;20581;-60
2023/06/11 04:56:18;;;;;;;2.40;2.20;;;;;;;23.97;46.97;100753.75;4459040;28;20074;-60
2023/06/11 04:58:30;;;;;;;2.58;2.38;;;;;;;23.97;46.89;100748.00;4489585;28;20191;-61
2023/06/11 05:00:42;;;;;;;2.40;2.20;;;;;;;23.95;47.51;100751.25;4465636;28;20657;-60
2023/06/11 05:02:53;;;;;;;2.40;2.20;;;;;;;23.98;47.41;100756.25;4476980;28;20049;-60
2023/06/11 05:05:05;;;;;;;2.35;2.15;;;;;;;23.94;47.54;100752.47;4475630;28;20100;-60
2023/06/11 05:07:18;;;;;;;2.60;2.40;;;;;;;23.98;47.61;100758.31;4475266;28;20625;-60
2023/06/11 05:09:29;;;;;;;2.42;2.22;;;;;;;23.98;47.64;100753.38;4483097;28;20027;-60
2023/06/11 05:11:44;;;;;;;2.70;2.50;;;;;;;23.97;47.73;100757.50;4482750;28;20118;-59
2023/06/11 05:13:56;;;;;;;2.70;2.50;;;;;;;24.00;47.35;100750.94;4472433;28;20530;-60
2023/06/11 05:16:06;;;;;;;2.55;2.35;;;;;;;23.97;47.51;100750.88;4490174;28;20061;-61
2023/06/11 05:18:17;;;;;;;2.65;2.45;;;;;;;23.95;47.65;100751.25;4475991;28;20046;-60
2023/06/11 05:20:28;;;;;;;2.60;2.40;;;;;;;23.98;47.80;100750.50;4475596;28;20090;-60
2023/06/11 05:22:39;;;;;;;2.63;2.42;;;;;;;23.98;47.87;100744.72;4490531;28;20037;-61
2023/06/11 05:24:50;;;;;;;3.03;2.60;;;;;;;23.97;48.14;100745.97;4475821;28;20034;-60
2023/06/11 05:27:03;;;;;;;2.80;2.60;;;;;;;23.98;47.73;100746.78;4476134;28;20630;-60
2023/06/11 05:29:16;;;;;;;2.63;2.42;;;;;;;23.97;48.59;100748.84;4473970;28;20050;-60
2023/06/11 05:31:29;;;;;;;2.83;2.53;;;;;;;23.96;48.37;100746.31;4475162;28;20081;-60
2023/06/11 05:33:40;;;;;;;2.70;2.50;;;;;;;23.96;48.55;100735.59;4477119;28;20041;-60
2023/06/11 05:35:52;;;;;;;3.10;2.60;;;;;;;23.97;48.44;100743.06;4487998;28;20057;-59
2023/06/11 05:38:11;;;;;;;2.70;2.50;;;;;;;23.99;48.53;100739.81;4490669;28;20660;-60
2023/06/11 05:40:24;;;;;;;2.80;2.60;;;;;;;23.94;48.43;100740.94;4474080;28;20259;-60
2023/06/11 05:42:34;;;;;;;2.90;2.60;;;;;;;23.98;48.26;100744.72;4477635;28;20037;-61
2023/06/11 05:44:45;;;;;;;2.75;2.55;;;;;;;23.97;48.65;100743.06;4489556;28;20034;-60
2023/06/11 05:46:56;;;;;;;2.60;2.40;;;;;;;23.98;48.29;100750.50;4475302;28;20041;-61
2023/06/11 05:49:06;;;;;;;2.63;2.40;;;;;;;23.99;49.22;100748.44;4473997;28;20066;-61
2023/06/11 05:51:17;;;;;;;3.10;2.80;;;;;;;23.97;49.11;100748.00;4476159;28;20048;-60
2023/06/11 05:53:27;;;;;;;2.92;2.72;;;;;;;23.97;49.33;100750.88;4474821;28;20022;-59
2023/06/11 05:55:38;;;;;;;2.80;2.60;;;;;;;23.95;48.71;100747.50;4473121;28;20097;-59
2023/06/11 05:57:50;;;;;;;2.83;2.63;;;;;;;23.94;48.92;100749.59;4459803;28;20926;-59
2023/06/11 06:00:02;;;;;;;2.83;2.60;;;;;;;23.95;48.93;100751.25;4474789;28;20043;-59
2023/06/11 06:02:14;;;;;;;2.80;2.60;;;;;;;23.95;49.05;100750.41;4489999;28;20030;-59
2023/06/11 06:04:25;;;;;;;2.42;2.22;;;;;;;23.92;49.18;100749.13;4474620;28;20506;-59
2023/06/11 06:06:37;;;;;;;2.60;2.40;;;;;;;23.92;49.53;100752.00;4457355;28;20241;-60
2023/06/11 06:08:48;;;;;;;3.10;2.80;;;;;;;23.90;49.28;100754.44;4490980;28;20022;-59
2023/06/11 06:10:58;;;;;;;2.70;2.50;;;;;;;23.90;49.80;100748.69;4473750;28;20038;-60
2023/06/11 06:13:09;;;;;;;3.30;3.00;;;;;;;23.92;50.02;100757.78;4479697;28;20034;-60
2023/06/11 06:15:20;;;;;;;2.67;2.47;;;;;;;23.87;49.84;100745.72;4474896;28;20113;-59
2023/06/11 06:17:30;;;;;;;3.17;2.92;;;;;;;23.87;49.45;100748.63;4474959;28;20042;-59
2023/06/11 06:19:41;;;;;;;3.10;2.80;;;;;;;23.89;50.02;100758.56;4481928;28;20104;-59
2023/06/11 06:21:51;;;;;;;3.03;2.72;;;;;;;23.89;49.85;100751.94;4480604;28;20034;-59
2023/06/11 06:24:03;;;;;;;3.08;2.78;;;;;;;23.83;49.99;100750.63;4474257;28;20133;-62
2023/06/11 06:26:14;;;;;;;2.95;2.70;;;;;;;23.88;49.56;100754.00;4477381;28;20577;-62
2023/06/11 06:28:24;;;;;;;2.83;2.63;;;;;;;23.90;49.98;100759.38;4474721;28;20039;-62
2023/06/11 06:30:38;;;;;;;3.00;2.70;;;;;;;23.89;49.46;100740.41;4489308;28;20149;-63
2023/06/11 06:32:49;;;;;;;2.83;2.63;;;;;;;23.91;49.74;100752.41;4475231;28;21045;-62
2023/06/11 06:35:00;;;;;;;2.67;2.47;;;;;;;23.83;49.40;100731.28;4477410;28;20161;-62
2023/06/11 06:37:11;;;;;;;3.17;2.65;;;;;;;23.87;49.69;100743.69;4480259;28;20034;-62
2023/06/11 06:39:22;;;;;;;3.03;2.72;;;;;;;23.81;49.47;100735.75;4480311;28;20065;-62
2023/06/11 06:41:34;;;;;;;3.20;2.90;;;;;;;23.91;50.43;100744.59;4482348;28;20610;-61
2023/06/11 06:43:51;;;;;;;3.08;2.78;;;;;;;23.89;50.08;100749.91;4473119;28;20522;-63
2023/06/11 06:46:02;;;;;;;3.10;2.80;;;;;;;23.93;50.03;100758.63;4474586;28;20030;-62
2023/06/11 06:48:16;;;;;;;3.42;3.10;;;;;;;23.88;50.66;100748.22;4476377;28;20218;-62
2023/06/11 06:50:27;;;;;;;2.83;2.63;;;;;;;23.95;51.42;100754.13;4489570;28;20818;-63
2023/06/11 06:52:37;;;;;;;2.90;2.60;;;;;;;23.94;51.33;100766.88;4472781;28;20114;-62
2023/06/11 06:54:50;;;;;;;3.08;2.88;;;;;;;23.97;51.20;100765.31;4489526;28;20118;-62
2023/06/11 06:57:00;;;;;;;3.00;2.80;;;;;;;24.05;51.06;100762.16;4476204;28;20117;-62
2023/06/11 06:59:11;;;;;;;3.33;3.03;;;;;;;24.11;49.47;100760.59;4465536;28;20078;-62
2023/06/11 07:01:23;;;;;;;3.00;2.80;;;;;;;24.14;50.62;100765.59;4479923;28;20046;-62
2023/06/11 07:03:34;;;;;;;2.70;2.50;;;;;;;24.14;50.65;100765.59;4474199;28;20125;-62
2023/06/11 07:05:44;;;;;;;2.58;2.38;;;;;;;24.14;50.87;100754.06;4490926;28;20397;-62
2023/06/11 07:07:55;;;;;;;2.80;2.60;;;;;;;24.19;50.66;100762.38;4469769;28;20093;-62
2023/06/11 07:10:08;;;;;;;2.70;2.50;;;;;;;24.20;50.31;100760.31;4473804;28;21327;-62
2023/06/11 07:12:20;;;;;;;2.30;2.15;;;;;;;24.14;50.33;100747.44;4470778;28;20038;-62
2023/06/11 07:14:30;;;;;;;2.70;2.50;;;;;;;24.18;50.06;100760.69;4487395;28;20046;-62
2023/06/11 07:16:43;;;;;;;2.10;2.00;;;;;;;24.25;50.03;100765.75;4474449;28;20066;-62
2023/06/11 07:18:53;;;;;;;2.47;2.28;;;;;;;24.24;49.32;100770.72;4459112;28;20821;-62
2023/06/11 07:21:04;;;;;;;2.55;2.35;;;;;;;24.24;50.09;100769.88;4478560;28;20038;-62
2023/06/11 07:23:15;;;;;;;2.50;2.30;;;;;;;24.25;49.94;100771.53;4473269;28;20233;-62
2023/06/11 07:25:28;;;;;;;2.53;2.33;;;;;;;24.29;50.00;100776.13;4489128;28;20505;-62
2023/06/11 07:27:38;;;;;;;3.03;2.72;;;;;;;24.27;49.60;100772.81;4480932;28;20110;-62
2023/06/11 07:29:49;;;;;;;2.50;2.30;;;;;;;24.29;49.56;100773.25;4473611;28;20098;-62
2023/06/11 07:32:00;;;;;;;3.03;2.83;;;;;;;24.32;48.30;100765.88;4481076;28;20089;-62
2023/06/11 07:34:13;;;;;;;2.95;2.75;;;;;;;24.33;48.32;100762.59;4489811;28;20037;-62
2023/06/11 07:36:23;;;;;;;3.50;3.20;;;;;;;24.31;47.99;100762.16;4475296;28;20042;-63
2023/06/11 07:38:34;;;;;;;3.13;2.90;;;;;;;24.31;48.28;100765.03;4470877;28;20384;-62
2023/06/11 07:40:44;;;;;;;2.70;2.50;;;;;;;24.13;49.02;100751.56;4473401;28;20098;-63
2023/06/11 07:42:55;;;;;;;2.00;1.90;;;;;;;24.12;50.75;100767.22;4480221;28;20041;-63
2023/06/11 07:45:08;;;;;;;2.10;1.90;;;;;;;23.93;50.88;100747.09;4474571;28;20043;-64
2023/06/11 07:47:19;;;;;;;3.35;2.63;;;;;;;23.95;49.99;100762.78;4473691;28;20038;-63
2023/06/11 07:49:30;;;;;;;2.90;2.60;;;;;;;23.99;50.14;100772.31;4489805;28;20382;-63
2023/06/11 07:51:42;;;;;;;1.90;1.80;;;;;;;23.98;50.71;100767.78;4474831;28;20126;-63
2023/06/11 07:53:56;;;;;;;1.90;1.80;;;;;;;23.79;51.09;100747.66;4462053;28;20918;-64
2023/06/11 07:56:06;;;;;;;2.33;2.13;;;;;;;23.85;50.73;100769.19;4487301;28;20026;-63
2023/06/11 07:58:17;;;;;;;2.83;2.42;;;;;;;23.86;50.37;100764.25;4463999;28;20054;-63
2023/06/11 08:00:27;;;;;;;1.95;1.75;;;;;;;23.85;51.38;100763.41;4488214;28;20042;-63
2023/06/11 08:02:41;;;;;;;2.22;1.98;;;;;;;23.71;52.05;100757.41;4489116;28;20064;-63
2023/06/11 08:04:52;;;;;;;1.90;1.80;;;;;;;23.79;51.92;100773.59;4464107;28;20534;-63
2023/06/11 08:07:03;;;;;;;2.03;1.83;;;;;;;23.78;52.02;100769.06;4470230;28;20047;-63
2023/06/11 08:09:14;;;;;;;2.10;1.90;;;;;;;23.80;51.90;100771.56;4488441;28;20710;-63
2023/06/11 08:11:25;;;;;;;1.95;1.85;;;;;;;23.71;51.80;100766.03;4488726;28;20660;-63
2023/06/11 08:13:35;;;;;;;2.00;1.90;;;;;;;23.76;51.74;100773.53;4487918;28;20060;-63
2023/06/11 08:15:46;;;;;;;2.42;2.00;;;;;;;23.68;51.90;100752.41;4472669;28;20066;-63
2023/06/11 08:17:56;;;;;;;2.17;2.00;;;;;;;23.72;51.80;100776.38;4489517;28;20031;-63
2023/06/11 08:20:07;;;;;;;2.35;2.15;;;;;;;23.66;51.91;100766.38;4488939;28;20129;-63
2023/06/11 08:22:18;;;;;;;2.47;2.28;;;;;;;23.72;51.82;100779.25;4480412;28;20053;-63
2023/06/11 08:24:30;;;;;;;2.25;2.08;;;;;;;23.72;51.84;100779.25;4487959;28;20213;-63
2023/06/11 08:26:40;;;;;;;2.50;2.08;;;;;;;23.61;52.07;100763.81;4490613;28;20581;-62
2023/06/11 08:28:51;;;;;;;2.22;2.03;;;;;;;23.67;51.80;100772.97;4492301;28;20042;-63
2023/06/11 08:31:01;;;;;;;2.35;2.15;;;;;;;23.69;51.60;100777.13;4490836;28;20080;-63
2023/06/11 08:33:12;;;;;;;2.20;2.00;;;;;;;23.63;52.01;100767.97;4490926;28;20093;-63
2023/06/11 08:35:22;;;;;;;2.30;2.10;;;;;;;23.61;51.96;100769.56;4492384;28;20041;-63
2023/06/11 08:37:33;;;;;;;2.42;2.22;;;;;;;23.58;52.21;100764.56;4490994;28;20026;-63
2023/06/11 08:39:43;;;;;;;2.10;1.90;;;;;;;23.63;51.88;100762.22;4491517;28;20038;-63
2023/06/11 08:41:54;;;;;;;2.30;2.10;;;;;;;23.57;51.83;100760.03;4476974;28;20474;-63
2023/06/11 08:44:04;;;;;;;2.00;1.90;;;;;;;23.54;52.09;100757.91;4491337;28;20033;-63
2023/06/11 08:46:16;;;;;;;2.25;2.05;;;;;;;23.63;52.02;100774.97;4491483;28;20034;-63
2023/06/11 08:48:32;;;;;;;2.28;2.08;;;;;;;23.62;51.82;100765.47;4476982;28;20035;-64
2023/06/11 08:50:43;;;;;;;2.00;1.90;;;;;;;23.54;52.07;100769.44;4493382;28;20038;-63
2023/06/11 08:52:53;;;;;;;2.33;2.13;;;;;;;23.55;51.47;100765.34;4491373;28;20447;-63
2023/06/11 08:55:04;;;;;;;2.00;1.90;;;;;;;23.57;51.70;100765.78;4491028;28;20166;-63
2023/06/11 08:57:15;;;;;;;1.92;1.83;;;;;;;23.56;51.74;100758.38;4491486;28;20034;-63
2023/06/11 08:59:25;;;;;;;1.80;1.70;;;;;;;23.47;51.62;100746.25;4492412;28;20033;-63
2023/06/11 09:01:36;;;;;;;2.25;2.05;;;;;;;23.54;51.58;100760.81;4492921;28;20359;-63
2023/06/11 09:03:46;;;;;;;2.22;2.03;;;;;;;23.49;51.50;100746.72;4489960;28;20041;-63
2023/06/11 09:05:57;;;;;;;2.15;2.00;;;;;;;23.51;51.73;100752.94;4491007;28;20041;-63
2023/06/11 09:08:08;;;;;;;1.88;1.77;;;;;;;23.51;51.26;100755.81;4473158;28;20038;-63
2023/06/11 09:10:20;;;;;;;2.03;1.92;;;;;;;23.51;51.26;100759.53;4490989;28;20577;-63
2023/06/11 09:12:30;;;;;;;1.73;1.63;;;;;;;23.54;51.41;100760.81;4491400;28;20049;-63
2023/06/11 09:14:52;;;;;;;1.88;1.77;;;;;;;23.50;51.45;100751.25;4491535;28;20049;-63
2023/06/11 09:17:02;;;;;;;1.95;1.85;;;;;;;23.47;51.44;100752.00;4490628;28;20789;-63
2023/06/11 09:19:19;;;;;;;1.90;1.80;;;;;;;23.53;51.33;100764.91;4491944;28;20043;-63
2023/06/11 09:21:30;;;;;;;1.90;1.80;;;;;;;23.50;51.50;100757.00;4490855;28;20049;-63
2023/06/11 09:23:40;;;;;;;2.15;2.05;;;;;;;23.46;51.33;100756.13;4491032;28;20045;-65
2023/06/11 09:25:51;;;;;;;1.77;1.67;;;;;;;23.46;51.47;100753.25;4491419;28;20069;-63
2023/06/11 09:28:05;;;;;;;1.75;1.65;;;;;;;23.48;51.79;100759.47;4492159;28;20556;-63
2023/06/11 09:30:18;;;;;;;2.03;1.90;;;;;;;23.47;51.48;100763.53;4490476;28;20038;-63
2023/06/11 09:32:28;;;;;;;1.85;1.75;;;;;;;23.39;51.53;100751.06;4491500;28;20616;-63
2023/06/11 09:34:42;;;;;;;1.83;1.70;;;;;;;23.44;51.39;100752.78;4475392;28;20175;-63
2023/06/11 09:36:53;;;;;;;1.70;1.60;;;;;;;23.48;51.49;100762.34;4489842;28;20041;-63
2023/06/11 09:39:04;;;;;;;1.80;1.70;;;;;;;23.40;51.35;100755.59;4465102;28;20043;-64
2023/06/11 09:41:14;;;;;;;1.83;1.73;;;;;;;23.43;51.36;100757.72;4491147;28;20050;-63
2023/06/11 09:43:25;;;;;;;1.75;1.65;;;;;;;23.44;51.20;100758.53;4490498;28;20049;-63
2023/06/11 09:45:36;;;;;;;1.83;1.73;;;;;;;23.43;51.37;100756.91;4491956;28;20915;-64
2023/06/11 09:47:48;;;;;;;1.70;1.50;;;;;;;23.41;51.33;100760.16;4490577;28;20647;-63
2023/06/11 09:49:58;;;;;;;1.70;1.60;;;;;;;23.45;51.40;100768.88;4473549;28;20035;-63
2023/06/11 09:52:10;;;;;;;1.80;1.70;;;;;;;23.43;51.44;100757.72;4490412;28;20558;-63
2023/06/11 09:54:21;;;;;;;1.90;1.80;;;;;;;23.40;51.17;100766.31;4483453;28;20089;-63
2023/06/11 09:56:33;;;;;;;1.70;1.60;;;;;;;23.35;51.46;100758.81;4489739;28;20557;-63
2023/06/11 09:58:47;;;;;;;1.70;1.60;;;;;;;23.40;51.52;100772.88;4479276;28;20057;-63
2023/06/11 10:01:00;;;;;;;1.88;1.77;;;;;;;23.43;51.34;100763.50;4482845;28;20731;-63
2023/06/11 10:03:11;;;;;;;1.67;1.58;;;;;;;23.49;51.28;100761.97;4490710;28;20041;-62
2023/06/11 10:05:21;;;;;;;1.80;1.70;;;;;;;23.55;51.09;100769.06;4490215;28;20498;-61
2023/06/11 10:07:38;;;;;;;2.25;1.90;;;;;;;23.56;50.78;100773.59;4490979;28;20045;-62
2023/06/11 10:09:52;;;;;;;2.28;2.08;;;;;;;23.58;50.90;100776.94;4490835;28;20585;-62
2023/06/11 10:12:04;;;;;;;2.10;1.90;;;;;;;23.53;51.01;100759.97;4489038;28;20129;-62